Time;durP1;ratioP1;P1;durP2;ratioP2;P2;SDS_P1;SDS_P2;PMS_P1;PMS_P2;Temp;Humidity;BMP_temperature;BMP_pressure;BME280_temperature;BME280_humidity;BME280_pressure;Samples;Min_cycle;Max_cycle;Signal;HPM_P1;HPM_P2
2022/09/04 00:02:13;;;;;;;;;;;17.20;99.90;;;;;;5094158;28;19999;-73
2022/09/04 00:04:48;;;;;;;;;;;17.20;99.90;;;;;;5096598;28;20408;-73
2022/09/04 00:07:28;;;;;;;;;;;17.10;99.90;;;;;;5096924;28;20350;-73
2022/09/04 00:10:03;;;;;;;;;;;17.00;99.90;;;;;;5104905;28;19960;-75
2022/09/04 00:12:32;;;;;;;;;;;16.90;99.90;;;;;;5084862;28;19919;-74
2022/09/04 00:15:01;;;;;;;;;;;16.90;99.90;;;;;;5096999;28;19923;-72
2022/09/04 00:17:29;;;;;;;;;;;16.80;99.90;;;;;;5096734;28;19920;-73
2022/09/04 00:19:58;;;;;;;;;;;16.90;99.90;;;;;;5095922;28;20307;-73
2022/09/04 00:22:42;;;;;;;;;;;16.80;99.90;;;;;;5107576;28;20004;-72
2022/09/04 00:25:15;;;;;;;;;;;16.70;99.90;;;;;;5110008;28;19916;-72
2022/09/04 00:27:44;;;;;;;;;;;16.70;99.90;;;;;;5109470;28;20268;-72
2022/09/04 00:30:13;;;;;;;;;;;16.60;99.90;;;;;;5085178;28;20223;-72
2022/09/04 00:32:48;;;;;;;;;;;16.50;99.90;;;;;;5113341;28;19992;-74
2022/09/04 00:35:30;;;;;;;;;;;16.60;99.90;;;;;;5104394;28;19923;-75
2022/09/04 00:38:05;;;;;;;;;;;16.60;99.90;;;;;;5101987;28;20079;-73
2022/09/04 00:40:36;;;;;;;;;;;16.70;99.90;;;;;;5086027;28;20322;-73
2022/09/04 00:43:20;;;;;;;;;;;16.70;99.90;;;;;;5098045;28;19923;-76
2022/09/04 00:45:49;;;;;;;;;;;16.70;99.90;;;;;;5097426;28;19915;-73
2022/09/04 00:48:17;;;;;;;;;;;16.70;99.90;;;;;;5108715;28;19912;-74
2022/09/04 00:50:45;;;;;;;;;;;16.80;99.90;;;;;;5109399;28;20271;-74
2022/09/04 00:53:30;;;;;;;;;;;16.80;99.90;;;;;;5117006;28;19916;-74
2022/09/04 00:56:14;;;;;;;;;;;16.90;99.90;;;;;;5113093;28;19912;-73
2022/09/04 00:58:45;;;;;;;;;;;17.00;99.90;;;;;;5103398;28;20288;-72
2022/09/04 01:01:13;;;;;;;;;;;16.90;99.90;;;;;;5101445;28;19999;-72
2022/09/04 01:03:49;;;;;;;;;;;16.80;99.90;;;;;;5116144;28;19918;-72
2022/09/04 01:06:14;;;;;;;;;;;16.70;99.90;;;;;;5098551;28;19942;-72
2022/09/04 01:08:46;;;;;;;;;;;16.60;99.90;;;;;;5094587;28;19915;-72
2022/09/04 01:11:31;;;;;;;;;;;16.50;99.90;;;;;;5100550;28;19920;-72
2022/09/04 01:13:56;;;;;;;;;;;16.40;99.90;;;;;;5089223;28;19922;-72
2022/09/04 01:16:25;;;;;;;;;;;16.30;99.90;;;;;;5089736;28;19998;-72
2022/09/04 01:19:09;;;;;;;;;;;16.30;99.90;;;;;;5104724;28;19919;-73
2022/09/04 01:21:41;;;;;;;;;;;16.30;99.90;;;;;;5098863;28;19912;-73
2022/09/04 01:24:07;;;;;;;;;;;16.20;99.90;;;;;;5114913;28;19920;-72
2022/09/04 01:26:32;;;;;;;;;;;16.20;99.90;;;;;;5085912;28;19923;-72
2022/09/04 01:29:17;;;;;;;;;;;16.10;99.90;;;;;;5090040;28;19920;-72
2022/09/04 01:31:42;;;;;;;;;;;16.10;99.90;;;;;;5087178;28;19912;-73
2022/09/04 01:34:08;;;;;;;;;;;16.10;99.90;;;;;;5091307;28;19960;-72
2022/09/04 01:36:36;;;;;;;;;;;16.00;99.90;;;;;;5106974;28;19959;-72
2022/09/04 01:39:02;;;;;;;;;;;16.00;99.90;;;;;;5085961;28;20230;-73
2022/09/04 01:41:31;;;;;;;;;;;16.10;99.90;;;;;;5114396;28;19915;-72
2022/09/04 01:43:56;;;;;;;;;;;16.10;99.90;;;;;;5102378;28;19961;-72
2022/09/04 01:46:22;;;;;;;;;;;16.00;99.90;;;;;;5102187;28;19911;-72
2022/09/04 01:48:47;;;;;;;;;;;15.90;99.90;;;;;;5112651;28;19921;-72
2022/09/04 01:51:26;;;;;;;;;;;15.90;99.90;;;;;;5115310;27;19920;-73
2022/09/04 01:54:20;;;;;;;;;;;15.90;99.90;;;;;;5112186;28;19984;-75
2022/09/04 01:56:49;;;;;;;;;;;16.00;99.90;;;;;;5059095;28;19921;-73
2022/09/04 01:59:23;;;;;;;;;;;16.20;99.90;;;;;;5107312;28;20332;-72
2022/09/04 02:01:56;;;;;;;;;;;16.30;99.90;;;;;;5101752;28;19912;-72
2022/09/04 02:04:33;;;;;;;;;;;16.30;99.90;;;;;;5101212;28;19912;-74
2022/09/04 02:07:17;;;;;;;;;;;16.30;99.90;;;;;;5110500;28;19919;-75
2022/09/04 02:09:53;;;;;;;;;;;16.20;99.90;;;;;;5112507;28;19916;-73
2022/09/04 02:12:37;;;;;;;;;;;16.10;99.90;;;;;;5109944;28;19911;-74
2022/09/04 02:15:11;;;;;;;;;;;16.10;99.90;;;;;;5113565;28;19912;-74
2022/09/04 02:17:42;;;;;;;;;;;16.10;99.90;;;;;;5096587;28;19987;-74
2022/09/04 02:20:13;;;;;;;;;;;16.10;99.90;;;;;;5113035;28;20345;-75
2022/09/04 02:22:48;;;;;;;;;;;16.00;99.90;;;;;;5111175;28;19961;-74
2022/09/04 02:25:49;;;;;;;;;;;16.00;99.90;;;;;;5112129;28;19919;-74
2022/09/04 02:28:20;;;;;;;;;;;16.00;99.90;;;;;;5067485;28;19920;-73
2022/09/04 02:30:59;;;;;;;;;;;15.90;99.90;;;;;;5093726;28;19916;-73
2022/09/04 02:33:31;;;;;;;;;;;15.90;99.90;;;;;;5098718;28;19912;-73
2022/09/04 02:36:02;;;;;;;;;;;15.80;99.90;;;;;;5112833;28;20195;-72
2022/09/04 02:38:35;;;;;;;;;;;15.80;99.90;;;;;;5094035;28;19915;-72
2022/09/04 02:41:39;;;;;;;;;;;15.80;99.90;;;;;;5096409;28;20408;-74
2022/09/04 02:44:13;;;;;;;;;;;15.70;99.90;;;;;;5039409;28;19966;-72
2022/09/04 02:46:39;;;;;;;;;;;15.70;99.90;;;;;;5039871;28;20004;-72
2022/09/04 02:49:06;;;;;;;;;;;15.70;99.90;;;;;;5073748;28;20006;-72
2022/09/04 02:51:44;;;;;;;;;;;15.60;99.90;;;;;;5108142;28;19916;-72
2022/09/04 02:54:29;;;;;;;;;;;15.50;99.90;;;;;;5088368;28;19919;-72
2022/09/04 02:57:19;;;;;;;;;;;15.50;99.90;;;;;;5109058;28;20226;-74
2022/09/04 02:59:57;;;;;;;;;;;15.50;99.90;;;;;;5102982;28;19920;-73
2022/09/04 03:02:23;;;;;;;;;;;15.60;99.90;;;;;;5078592;28;20219;-73
2022/09/04 03:04:55;;;;;;;;;;;15.70;99.90;;;;;;5106295;28;19912;-74
2022/09/04 03:07:34;;;;;;;;;;;15.80;99.90;;;;;;5113993;28;20419;-73
2022/09/04 03:10:09;;;;;;;;;;;15.80;99.90;;;;;;5109964;28;19926;-73
2022/09/04 03:12:46;;;;;;;;;;;15.70;99.90;;;;;;5099718;28;19985;-74
2022/09/04 03:15:15;;;;;;;;;;;15.70;99.90;;;;;;5115622;28;19916;-73
2022/09/04 03:17:57;;;;;;;;;;;15.60;99.90;;;;;;5092260;28;20345;-73
2022/09/04 03:20:25;;;;;;;;;;;15.60;99.90;;;;;;5101297;28;19922;-73
2022/09/04 03:22:53;;;;;;;;;;;15.60;99.90;;;;;;5100611;28;19911;-73
2022/09/04 03:25:25;;;;;;;;;;;15.60;99.90;;;;;;5112706;28;19911;-73
2022/09/04 03:27:51;;;;;;;;;;;15.50;99.90;;;;;;5099656;28;19912;-73
2022/09/04 03:30:17;;;;;;;;;;;15.50;99.90;;;;;;5114467;28;19916;-73
2022/09/04 03:32:48;;;;;;;;;;;15.50;99.90;;;;;;5112587;28;19920;-73
2022/09/04 03:35:19;;;;;;;;;;;15.50;99.90;;;;;;5115296;28;19918;-74
2022/09/04 03:37:54;;;;;;;;;;;15.50;99.90;;;;;;5094441;28;19923;-74
2022/09/04 03:40:31;;;;;;;;;;;15.50;99.90;;;;;;5112387;28;20370;-72
2022/09/04 03:43:00;;;;;;;;;;;15.50;99.90;;;;;;5106162;28;19912;-73
2022/09/04 03:45:44;;;;;;;;;;;15.50;99.90;;;;;;5076506;28;20298;-73
2022/09/04 03:48:35;;;;;;;;;;;15.40;99.90;;;;;;5112447;28;19955;-72
2022/09/04 03:51:06;;;;;;;;;;;15.40;99.90;;;;;;5092327;28;19927;-72
2022/09/04 03:53:49;;;;;;;;;;;15.40;99.90;;;;;;5113348;28;19965;-72
2022/09/04 03:56:20;;;;;;;;;;;15.30;99.90;;;;;;5114389;28;19911;-72
2022/09/04 03:58:52;;;;;;;;;;;15.30;99.90;;;;;;5114624;28;19958;-73
2022/09/04 04:01:17;;;;;;;;;;;15.30;99.90;;;;;;5110908;28;19916;-72
2022/09/04 04:04:02;;;;;;;;;;;15.30;99.90;;;;;;5110860;28;19922;-73
2022/09/04 04:06:33;;;;;;;;;;;15.30;99.90;;;;;;5114180;28;20056;-73
2022/09/04 04:09:12;;;;;;;;;;;15.30;99.90;;;;;;5114829;28;19912;-72
2022/09/04 04:12:01;;;;;;;;;;;15.30;99.90;;;;;;5108724;28;19920;-72
2022/09/04 04:14:36;;;;;;;;;;;15.30;99.90;;;;;;5098060;28;19913;-72
2022/09/04 04:17:04;;;;;;;;;;;15.20;99.90;;;;;;5082405;28;20065;-72
2022/09/04 04:19:48;;;;;;;;;;;15.10;99.90;;;;;;5114502;28;19908;-72
2022/09/04 04:22:20;;;;;;;;;;;14.90;99.90;;;;;;5109185;28;20300;-72
2022/09/04 04:25:08;;;;;;;;;;;14.80;99.90;;;;;;5113690;28;19912;-72
2022/09/04 04:27:52;;;;;;;;;;;14.70;99.90;;;;;;5113123;28;19911;-73
2022/09/04 04:30:18;;;;;;;;;;;14.80;99.90;;;;;;5111560;28;19967;-72
2022/09/04 04:32:44;;;;;;;;;;;14.80;99.90;;;;;;5103164;28;19924;-72
2022/09/04 04:35:16;;;;;;;;;;;14.70;99.90;;;;;;5095884;28;19916;-73
2022/09/04 04:37:45;;;;;;;;;;;14.70;99.90;;;;;;5111516;28;19919;-73
2022/09/04 04:40:11;;;;;;;;;;;14.80;99.90;;;;;;5111269;28;19912;-72
2022/09/04 04:42:53;;;;;;;;;;;14.80;99.90;;;;;;5094229;28;19922;-72
2022/09/04 04:45:50;;;;;;;;;;;14.80;99.90;;;;;;5090903;28;19916;-72
2022/09/04 04:48:28;;;;;;;;;;;14.80;99.90;;;;;;5092170;28;20492;-72
2022/09/04 04:51:12;;;;;;;;;;;14.80;99.90;;;;;;5107939;28;19961;-72
2022/09/04 04:53:45;;;;;;;;;;;14.90;99.90;;;;;;5112195;28;19916;-72
2022/09/04 04:56:16;;;;;;;;;;;14.90;99.90;;;;;;5111842;28;20257;-72
2022/09/04 04:58:49;;;;;;;;;;;14.90;99.90;;;;;;5108886;28;19927;-72
2022/09/04 05:01:41;;;;;;;;;;;14.80;99.90;;;;;;5107350;28;19916;-72
2022/09/04 05:04:21;;;;;;;;;;;14.70;99.90;;;;;;5106424;28;19918;-72
2022/09/04 05:06:50;;;;;;;;;;;14.70;99.90;;;;;;5110770;28;19920;-72
2022/09/04 05:09:20;;;;;;;;;;;14.60;99.90;;;;;;5109198;28;19916;-74
2022/09/04 05:11:52;;;;;;;;;;;14.60;99.90;;;;;;5105213;28;19959;-73
2022/09/04 05:14:26;;;;;;;;;;;14.60;99.90;;;;;;5106794;28;19915;-72
2022/09/04 05:16:52;;;;;;;;;;;14.60;99.90;;;;;;5106329;28;19921;-74
2022/09/04 05:19:29;;;;;;;;;;;14.70;99.90;;;;;;5101919;28;19916;-72
2022/09/04 05:21:58;;;;;;;;;;;14.70;99.90;;;;;;5104388;28;19920;-74
2022/09/04 05:24:50;;;;;;;;;;;14.80;99.90;;;;;;5108335;28;20326;-74
2022/09/04 05:27:18;;;;;;;;;;;14.90;99.90;;;;;;5062202;28;19920;-74
2022/09/04 05:29:50;;;;;;;;;;;15.00;99.90;;;;;;5110638;28;19919;-74
2022/09/04 05:32:18;;;;;;;;;;;15.10;99.90;;;;;;5111716;28;19938;-73
2022/09/04 05:34:53;;;;;;;;;;;15.10;99.90;;;;;;5110244;28;20275;-74
2022/09/04 05:37:24;;;;;;;;;;;15.20;99.90;;;;;;5114136;28;20222;-73
2022/09/04 05:40:05;;;;;;;;;;;15.20;99.90;;;;;;5111842;28;20276;-72
2022/09/04 05:42:53;;;;;;;;;;;15.20;99.90;;;;;;5109648;28;20227;-73
2022/09/04 05:45:28;;;;;;;;;;;15.20;99.90;;;;;;5090353;28;19912;-72
2022/09/04 05:47:59;;;;;;;;;;;15.20;99.90;;;;;;5111288;28;19919;-73
2022/09/04 05:50:44;;;;;;;;;;;15.30;99.90;;;;;;5113648;28;19958;-73
2022/09/04 05:53:27;;;;;;;;;;;15.30;99.90;;;;;;5105491;28;19915;-72
2022/09/04 05:56:01;;;;;;;;;;;15.30;99.90;;;;;;5108289;28;20326;-72
2022/09/04 05:59:02;;;;;;;;;;;15.40;99.90;;;;;;5091658;28;19973;-72
2022/09/04 06:01:40;;;;;;;;;;;15.40;99.90;;;;;;5051899;28;20044;-74
2022/09/04 06:04:28;;;;;;;;;;;15.50;99.90;;;;;;5081154;28;19912;-73
2022/09/04 06:07:12;;;;;;;;;;;15.60;99.90;;;;;;5102881;28;19916;-73
2022/09/04 06:09:38;;;;;;;;;;;15.60;99.90;;;;;;5112351;28;19918;-73
2022/09/04 06:12:17;;;;;;;;;;;15.70;99.90;;;;;;5084514;28;19920;-72
2022/09/04 06:14:43;;;;;;;;;;;15.80;99.90;;;;;;5107911;28;20194;-73
2022/09/04 06:17:20;;;;;;;;;;;15.90;99.90;;;;;;5112345;28;19920;-72
2022/09/04 06:20:19;;;;;;;;;;;15.90;99.90;;;;;;5103478;28;19912;-73
2022/09/04 06:22:44;;;;;;;;;;;16.00;99.90;;;;;;5030298;28;19917;-75
2022/09/04 06:25:16;;;;;;;;;;;16.10;99.90;;;;;;5029961;28;19999;-74
2022/09/04 06:27:59;;;;;;;;;;;16.20;99.90;;;;;;5029183;28;19917;-73
2022/09/04 06:30:29;;;;;;;;;;;16.30;99.90;;;;;;5029225;28;19920;-73
2022/09/04 06:32:55;;;;;;;;;;;16.40;99.90;;;;;;5032732;28;19909;-75
2022/09/04 06:35:31;;;;;;;;;;;16.50;99.90;;;;;;5032750;28;20004;-72
2022/09/04 06:38:15;;;;;;;;;;;16.50;99.90;;;;;;5030691;28;19920;-72
2022/09/04 06:40:44;;;;;;;;;;;16.70;99.90;;;;;;5031293;28;19917;-73
2022/09/04 06:43:28;;;;;;;;;;;16.80;99.90;;;;;;5029657;28;19921;-74
2022/09/04 06:45:57;;;;;;;;;;;16.90;99.90;;;;;;5028061;28;20007;-74
2022/09/04 06:48:22;;;;;;;;;;;17.00;99.90;;;;;;5024199;28;19922;-73
2022/09/04 06:51:06;;;;;;;;;;;17.10;99.90;;;;;;5028490;28;20739;-75
2022/09/04 06:53:42;;;;;;;;;;;17.20;99.90;;;;;;5020019;28;19960;-75
2022/09/04 06:56:17;;;;;;;;;;;17.30;99.90;;;;;;5019925;28;19918;-75
2022/09/04 06:58:52;;;;;;;;;;;17.40;99.90;;;;;;5071293;28;19915;-74
2022/09/04 07:01:18;;;;;;;;;;;17.50;99.90;;;;;;5093935;28;20330;-75
2022/09/04 07:03:53;;;;;;;;;;;17.80;99.90;;;;;;5112247;28;19915;-74
2022/09/04 07:06:35;;;;;;;;;;;18.00;99.90;;;;;;5111809;28;20427;-74
2022/09/04 07:09:15;;;;;;;;;;;18.40;99.90;;;;;;5096006;28;19920;-74
2022/09/04 07:11:58;;;;;;;;;;;18.90;99.90;;;;;;5092144;28;19912;-74
2022/09/04 07:14:32;;;;;;;;;;;19.70;99.90;;;;;;5114544;28;19912;-75
2022/09/04 07:17:01;;;;;;;;;;;20.40;99.90;;;;;;5110367;28;19931;-75
2022/09/04 07:19:36;;;;;;;;;;;20.90;99.90;;;;;;5112883;28;19964;-75
2022/09/04 07:22:21;;;;;;;;;;;21.20;99.90;;;;;;5110371;28;19920;-73
2022/09/04 07:24:55;;;;;;;;;;;21.60;99.90;;;;;;5112307;28;20002;-73
2022/09/04 07:27:40;;;;;;;;;;;22.20;99.90;;;;;;5112594;28;20623;-74
2022/09/04 07:30:07;;;;;;;;;;;22.50;99.90;;;;;;5111353;28;19960;-74
2022/09/04 07:32:39;;;;;;;;;;;22.70;99.90;;;;;;5109227;28;20331;-73
2022/09/04 07:35:12;;;;;;;;;;;22.70;99.90;;;;;;5108671;28;19955;-76
2022/09/04 07:37:45;;;;;;;;;;;22.60;99.90;;;;;;5090511;28;20620;-75
2022/09/04 07:40:20;;;;;;;;;;;22.30;99.90;;;;;;5091193;28;20015;-74
2022/09/04 07:42:55;;;;;;;;;;;22.40;99.90;;;;;;5108736;28;19944;-74
2022/09/04 07:45:50;;;;;;;;;;;22.50;99.90;;;;;;5091972;28;19919;-75
2022/09/04 07:48:18;;;;;;;;;;;22.50;99.90;;;;;;5110364;28;19919;-72
2022/09/04 07:51:03;;;;;;;;;;;22.80;99.90;;;;;;5093516;28;19961;-74
2022/09/04 07:53:39;;;;;;;;;;;23.20;99.90;;;;;;5110312;28;19958;-75
2022/09/04 07:56:17;;;;;;;;;;;23.70;99.90;;;;;;5107985;28;20329;-73
2022/09/04 07:58:55;;;;;;;;;;;24.10;99.90;;;;;;5091164;28;19963;-73
2022/09/04 08:01:28;;;;;;;;;;;24.30;99.90;;;;;;5092631;28;19970;-74
2022/09/04 08:04:19;;;;;;;;;;;24.40;99.90;;;;;;5106902;28;20386;-73
2022/09/04 08:06:48;;;;;;;;;;;24.70;99.90;;;;;;5076326;28;19912;-75
2022/09/04 08:09:26;;;;;;;;;;;25.00;99.90;;;;;;5093520;28;20390;-72
2022/09/04 08:12:13;;;;;;;;;;;25.10;99.90;;;;;;5108359;28;20560;-75
2022/09/04 08:14:51;;;;;;;;;;;25.00;99.90;;;;;;5110608;28;20326;-74
2022/09/04 08:17:26;;;;;;;;;;;25.10;99.90;;;;;;5108843;28;20256;-73
2022/09/04 08:19:51;;;;;;;;;;;25.50;99.90;;;;;;5089527;28;19922;-73
2022/09/04 08:22:26;;;;;;;;;;;25.80;99.90;;;;;;5112246;28;19916;-73
2022/09/04 08:24:58;;;;;;;;;;;25.90;99.90;;;;;;5089047;28;20006;-74
2022/09/04 08:27:37;;;;;;;;;;;26.20;99.90;;;;;;5079586;28;19920;-76
2022/09/04 08:30:05;;;;;;;;;;;26.60;99.90;;;;;;5099233;28;19909;-77
2022/09/04 08:32:54;;;;;;;;;;;26.80;99.80;;;;;;5100035;28;19917;-74
2022/09/04 08:35:39;;;;;;;;;;;26.60;99.90;;;;;;5104798;28;19926;-78
2022/09/04 08:38:22;;;;;;;;;;;26.60;99.90;;;;;;5101273;28;20237;-74
2022/09/04 08:40:56;;;;;;;;;;;26.40;99.90;;;;;;5100996;28;19916;-74
2022/09/04 08:43:28;;;;;;;;;;;26.70;99.90;;;;;;5085086;28;19918;-74
2022/09/04 08:45:54;;;;;;;;;;;26.80;99.90;;;;;;5101670;28;20532;-74
2022/09/04 08:48:25;;;;;;;;;;;26.70;99.90;;;;;;5105145;28;19920;-75
2022/09/04 08:50:50;;;;;;;;;;;26.60;99.90;;;;;;5108597;28;19920;-74
2022/09/04 08:53:17;;;;;;;;;;;26.60;99.90;;;;;;5109469;28;19969;-73
2022/09/04 08:55:57;;;;;;;;;;;26.60;99.90;;;;;;5090776;28;19957;-81
2022/09/04 08:58:41;;;;;;;;;;;26.90;99.90;;;;;;5107923;28;19920;-75
2022/09/04 09:01:26;;;;;;;;;;;26.90;99.90;;;;;;5096859;28;19951;-74
2022/09/04 09:04:07;;;;;;;;;;;26.90;99.90;;;;;;5088914;28;20010;-78
2022/09/04 09:07:01;;;;;;;;;;;27.20;99.90;;;;;;5094153;28;19920;-73
2022/09/04 09:09:42;;;;;;;;;;;27.30;99.90;;;;;;5114604;28;20038;-73
2022/09/04 09:12:33;;;;;;;;;;;27.50;99.90;;;;;;5111362;28;19920;-72
2022/09/04 09:15:17;;;;;;;;;;;27.70;99.90;;;;;;5108610;28;19922;-73
2022/09/04 09:17:46;;;;;;;;;;;27.90;99.90;;;;;;5095107;28;19931;-73
2022/09/04 09:20:28;;;;;;;;;;;28.00;99.90;;;;;;5112176;28;19923;-73
2022/09/04 09:23:13;;;;;;;;;;;28.10;99.70;;;;;;5114284;28;19916;-73
2022/09/04 09:25:38;;;;;;;;;;;28.30;99.80;;;;;;5114820;28;19912;-73
2022/09/04 09:28:07;;;;;;;;;;;28.40;99.40;;;;;;5113963;28;20311;-73
2022/09/04 09:30:49;;;;;;;;;;;28.50;99.40;;;;;;5112774;28;19915;-74
2022/09/04 09:33:40;;;;;;;;;;;28.60;99.00;;;;;;5114348;28;19912;-74
2022/09/04 09:36:26;;;;;;;;;;;28.70;98.80;;;;;;5080195;28;19962;-74
2022/09/04 09:39:17;;;;;;;;;;;28.50;98.60;;;;;;5079546;28;19916;-73
2022/09/04 09:42:01;;;;;;;;;;;28.50;99.40;;;;;;5079572;28;19916;-73
2022/09/04 09:44:42;;;;;;;;;;;28.40;98.70;;;;;;5097566;28;20454;-73
2022/09/04 09:47:23;;;;;;;;;;;28.30;99.20;;;;;;5107104;28;19923;-74
2022/09/04 09:49:55;;;;;;;;;;;28.20;99.10;;;;;;5084933;28;19912;-73
2022/09/04 09:52:39;;;;;;;;;;;28.30;99.30;;;;;;5099225;28;20312;-74
2022/09/04 09:55:04;;;;;;;;;;;28.30;99.00;;;;;;5115331;28;19992;-73
2022/09/04 09:57:37;;;;;;;;;;;28.40;99.10;;;;;;5096284;28;19965;-73
2022/09/04 10:00:05;;;;;;;;;;;28.40;99.10;;;;;;5116346;28;20002;-74
2022/09/04 10:02:31;;;;;;;;;;;28.30;99.20;;;;;;5098185;28;19922;-74
2022/09/04 10:04:56;;;;;;;;;;;28.10;98.60;;;;;;5088667;28;19912;-73
2022/09/04 10:07:31;;;;;;;;;;;28.00;99.90;;;;;;5108956;28;19916;-73
2022/09/04 10:09:57;;;;;;;;;;;27.90;99.70;;;;;;5096796;28;20207;-74
2022/09/04 10:12:22;;;;;;;;;;;27.80;99.90;;;;;;5095688;28;19923;-77
2022/09/04 10:14:56;;;;;;;;;;;27.70;99.90;;;;;;5096511;28;19912;-74
2022/09/04 10:17:41;;;;;;;;;;;27.60;99.90;;;;;;5097394;28;19931;-76
2022/09/04 10:20:25;;;;;;;;;;;27.70;99.90;;;;;;5095911;28;19939;-73
2022/09/04 10:23:07;;;;;;;;;;;27.80;99.90;;;;;;5096400;28;19915;-72
2022/09/04 10:25:45;;;;;;;;;;;27.80;99.90;;;;;;5095707;28;20453;-77
2022/09/04 10:28:34;;;;;;;;;;;28.00;99.90;;;;;;5096975;28;19916;-74
2022/09/04 10:31:18;;;;;;;;;;;28.10;99.90;;;;;;5090067;28;19955;-73
2022/09/04 10:33:59;;;;;;;;;;;28.10;99.90;;;;;;5105066;28;19963;-74
2022/09/04 10:36:36;;;;;;;;;;;28.20;99.90;;;;;;5095712;28;19915;-73
2022/09/04 10:42:00;;;;;;;;;;;28.40;99.90;;;;;;5096667;28;19970;-73
2022/09/04 10:44:35;;;;;;;;;;;28.50;99.90;;;;;;5095114;28;19913;-72
2022/09/04 10:47:03;;;;;;;;;;;28.50;99.90;;;;;;5101174;28;19912;-73
2022/09/04 10:49:29;;;;;;;;;;;28.70;99.80;;;;;;5090558;28;20010;-73
2022/09/04 10:52:13;;;;;;;;;;;28.60;99.40;;;;;;5101236;28;20268;-72
2022/09/04 10:54:42;;;;;;;;;;;28.60;99.50;;;;;;5095559;28;19908;-73
2022/09/04 10:57:17;;;;;;;;;;;28.50;99.70;;;;;;5094870;28;19942;-72
2022/09/04 10:59:51;;;;;;;;;;;28.50;99.20;;;;;;5094995;28;19912;-73
2022/09/04 11:02:21;;;;;;;;;;;28.70;99.60;;;;;;5095901;28;19912;-74
2022/09/04 11:04:52;;;;;;;;;;;28.80;98.50;;;;;;5080171;28;19916;-73
2022/09/04 11:07:24;;;;;;;;;;;28.90;97.90;;;;;;5112515;28;19941;-73
2022/09/04 11:10:13;;;;;;;;;;;29.00;98.70;;;;;;5090945;28;20006;-73
2022/09/04 11:12:42;;;;;;;;;;;29.20;98.50;;;;;;5089039;28;19915;-73
2022/09/04 11:15:26;;;;;;;;;;;29.00;98.80;;;;;;5085092;28;19916;-73
2022/09/04 11:17:52;;;;;;;;;;;29.10;98.30;;;;;;5094380;28;19924;-73
2022/09/04 11:20:17;;;;;;;;;;;29.20;97.70;;;;;;5086244;28;20299;-72
2022/09/04 11:22:52;;;;;;;;;;;29.20;98.20;;;;;;5094884;28;19911;-73
2022/09/04 11:25:18;;;;;;;;;;;29.20;98.10;;;;;;5093566;28;20225;-73
2022/09/04 11:27:50;;;;;;;;;;;29.30;98.40;;;;;;5094491;28;20003;-73
2022/09/04 11:30:16;;;;;;;;;;;29.40;97.50;;;;;;5094260;28;19950;-73
2022/09/04 11:32:47;;;;;;;;;;;29.40;97.10;;;;;;5076868;28;19956;-74
2022/09/04 11:35:25;;;;;;;;;;;29.40;96.80;;;;;;5078000;28;20011;-75
2022/09/04 11:37:57;;;;;;;;;;;29.50;96.70;;;;;;5093771;28;19912;-74
2022/09/04 11:40:32;;;;;;;;;;;29.50;96.50;;;;;;5106321;28;19965;-74
2022/09/04 11:43:03;;;;;;;;;;;29.40;96.40;;;;;;5093568;28;19916;-74
2022/09/04 11:45:29;;;;;;;;;;;29.30;96.70;;;;;;5078174;28;19908;-74
2022/09/04 11:48:00;;;;;;;;;;;29.20;97.90;;;;;;5109890;28;19938;-76
2022/09/04 11:50:44;;;;;;;;;;;29.30;96.70;;;;;;5103785;28;19927;-74
2022/09/04 11:53:25;;;;;;;;;;;29.30;97.20;;;;;;5104383;28;19926;-73
2022/09/04 11:55:56;;;;;;;;;;;29.30;97.10;;;;;;5094956;28;19920;-74
2022/09/04 11:58:42;;;;;;;;;;;29.30;97.00;;;;;;5099351;28;19922;-73
2022/09/04 12:01:23;;;;;;;;;;;29.30;97.00;;;;;;5100618;28;19922;-73
2022/09/04 12:03:49;;;;;;;;;;;29.10;97.10;;;;;;5097292;28;19947;-74
2022/09/04 12:06:33;;;;;;;;;;;29.00;97.50;;;;;;5102648;28;20509;-73
2022/09/04 12:09:05;;;;;;;;;;;29.00;96.60;;;;;;5106873;28;20234;-73
2022/09/04 12:11:45;;;;;;;;;;;29.10;96.60;;;;;;5100643;28;19939;-74
2022/09/04 12:14:23;;;;;;;;;;;29.10;96.00;;;;;;5088527;28;19992;-74
2022/09/04 12:16:48;;;;;;;;;;;29.20;95.70;;;;;;5093783;28;19939;-72
2022/09/04 12:19:34;;;;;;;;;;;29.20;96.80;;;;;;5102929;28;19924;-73
2022/09/04 12:21:59;;;;;;;;;;;29.20;96.20;;;;;;5084461;28;19916;-74
2022/09/04 12:24:37;;;;;;;;;;;29.40;96.00;;;;;;5101488;28;19967;-74
2022/09/04 12:27:22;;;;;;;;;;;29.60;95.90;;;;;;5102200;28;19935;-78
2022/09/04 12:30:03;;;;;;;;;;;29.80;95.90;;;;;;5100916;28;19961;-74
2022/09/04 12:32:28;;;;;;;;;;;29.90;96.20;;;;;;5100287;28;20253;-80
2022/09/04 12:35:03;;;;;;;;;;;29.90;95.10;;;;;;5102464;28;19916;-74
2022/09/04 12:37:35;;;;;;;;;;;29.80;94.70;;;;;;5110523;28;19916;-75
2022/09/04 12:40:04;;;;;;;;;;;29.70;94.50;;;;;;5105699;28;19920;-81
2022/09/04 12:42:35;;;;;;;;;;;29.60;94.50;;;;;;5093553;28;20315;-74
2022/09/04 12:45:13;;;;;;;;;;;29.60;94.70;;;;;;5105737;28;20503;-75
2022/09/04 12:47:47;;;;;;;;;;;29.70;95.10;;;;;;5109619;28;19919;-76
2022/09/04 12:50:17;;;;;;;;;;;29.70;94.00;;;;;;5106242;28;19916;-75
2022/09/04 12:52:43;;;;;;;;;;;29.60;94.60;;;;;;5110447;28;20007;-76
2022/09/04 12:55:08;;;;;;;;;;;29.60;95.50;;;;;;5092624;28;20366;-74
2022/09/04 12:57:46;;;;;;;;;;;29.60;95.20;;;;;;5096020;28;20015;-75
2022/09/04 13:00:17;;;;;;;;;;;29.80;95.40;;;;;;5096673;28;19916;-75
2022/09/04 13:03:05;;;;;;;;;;;29.60;95.60;;;;;;5104654;28;19916;-79
2022/09/04 13:05:39;;;;;;;;;;;29.50;95.50;;;;;;5104802;28;19963;-73
2022/09/04 13:08:05;;;;;;;;;;;29.40;95.70;;;;;;5100436;28;19916;-74
2022/09/04 13:10:34;;;;;;;;;;;29.40;95.40;;;;;;5104075;28;19912;-74
2022/09/04 13:13:19;;;;;;;;;;;29.40;95.50;;;;;;5099045;28;19920;-75
2022/09/04 13:15:55;;;;;;;;;;;29.40;95.20;;;;;;5102454;28;20233;-73
2022/09/04 13:18:22;;;;;;;;;;;29.40;95.90;;;;;;5096398;28;19924;-74
2022/09/04 13:20:48;;;;;;;;;;;29.50;94.80;;;;;;5095501;28;19923;-73
2022/09/04 13:23:17;;;;;;;;;;;29.50;95.90;;;;;;5095937;28;19908;-74
2022/09/04 13:25:53;;;;;;;;;;;29.40;95.80;;;;;;5096589;28;19923;-73
2022/09/04 13:28:36;;;;;;;;;;;29.40;96.10;;;;;;5096967;28;20323;-74
2022/09/04 13:31:18;;;;;;;;;;;29.40;96.70;;;;;;5082393;28;19954;-73
2022/09/04 13:34:02;;;;;;;;;;;29.40;95.50;;;;;;5104141;28;20313;-74
2022/09/04 13:36:34;;;;;;;;;;;29.40;95.20;;;;;;5095766;28;19994;-73
2022/09/04 13:39:03;;;;;;;;;;;29.10;95.80;;;;;;5079467;28;19923;-74
2022/09/04 13:41:49;;;;;;;;;;;29.00;96.40;;;;;;5077124;28;19923;-74
2022/09/04 13:44:27;;;;;;;;;;;29.00;96.60;;;;;;5098098;28;19951;-73
2022/09/04 13:47:12;;;;;;;;;;;28.90;95.60;;;;;;5094969;28;19920;-74
2022/09/04 13:49:47;;;;;;;;;;;28.90;96.30;;;;;;5097013;28;19916;-85
2022/09/04 13:52:23;;;;;;;;;;;28.90;96.20;;;;;;5097154;28;20377;-73
2022/09/04 13:54:53;;;;;;;;;;;28.90;96.50;;;;;;5099339;28;19912;-74
2022/09/04 13:57:26;;;;;;;;;;;28.90;96.40;;;;;;5101238;28;19920;-74
2022/09/04 13:59:55;;;;;;;;;;;28.80;95.50;;;;;;5100506;28;19916;-73
2022/09/04 14:02:24;;;;;;;;;;;28.70;95.50;;;;;;5095352;28;19924;-74
2022/09/04 14:04:56;;;;;;;;;;;28.60;97.10;;;;;;5094972;28;19918;-75
2022/09/04 14:07:32;;;;;;;;;;;28.50;97.50;;;;;;5099465;28;19958;-74
2022/09/04 14:10:03;;;;;;;;;;;28.40;97.40;;;;;;5097277;28;20006;-74
2022/09/04 14:12:48;;;;;;;;;;;28.40;97.60;;;;;;5081814;28;19934;-80
2022/09/04 14:15:20;;;;;;;;;;;28.30;97.80;;;;;;5099739;28;19912;-73
2022/09/04 14:17:55;;;;;;;;;;;28.40;97.50;;;;;;5098085;28;19926;-73
2022/09/04 14:20:27;;;;;;;;;;;28.30;97.20;;;;;;5087818;28;20484;-74
2022/09/04 14:22:59;;;;;;;;;;;28.30;97.50;;;;;;5094979;28;19912;-73
2022/09/04 14:25:33;;;;;;;;;;;28.30;97.30;;;;;;5097478;28;19916;-73
2022/09/04 14:28:02;;;;;;;;;;;28.30;97.30;;;;;;5094658;28;19908;-73
2022/09/04 14:30:32;;;;;;;;;;;28.40;97.40;;;;;;5076282;28;20321;-74
2022/09/04 14:33:04;;;;;;;;;;;28.30;97.80;;;;;;5076566;28;20291;-74
2022/09/04 14:35:47;;;;;;;;;;;28.30;97.80;;;;;;5096760;28;19908;-73
2022/09/04 14:38:26;;;;;;;;;;;28.20;97.90;;;;;;5097776;28;19938;-74
2022/09/04 14:40:56;;;;;;;;;;;28.30;98.00;;;;;;5080666;28;19923;-74
2022/09/04 14:43:30;;;;;;;;;;;28.20;97.90;;;;;;5082207;28;19965;-74
2022/09/04 14:46:27;;;;;;;;;;;28.10;97.60;;;;;;5075537;28;20030;-74
2022/09/04 14:49:01;;;;;;;;;;;28.20;97.90;;;;;;5066493;28;19944;-73
2022/09/04 14:51:27;;;;;;;;;;;28.20;98.10;;;;;;5095171;28;20326;-74
2022/09/04 14:53:56;;;;;;;;;;;28.10;98.00;;;;;;5083416;28;19919;-73
2022/09/04 14:56:31;;;;;;;;;;;28.10;97.90;;;;;;5107531;28;19964;-74
2022/09/04 14:59:05;;;;;;;;;;;28.20;98.60;;;;;;5102638;28;19960;-74
2022/09/04 15:01:34;;;;;;;;;;;28.00;97.80;;;;;;5103277;28;19923;-74
2022/09/04 15:03:59;;;;;;;;;;;28.00;97.60;;;;;;5102787;28;19954;-74
2022/09/04 15:06:33;;;;;;;;;;;28.00;98.40;;;;;;5106842;28;19950;-74